sensor_id;sensor_type;location;lat;lon;timestamp;temperature;humidity
66608;DHT22;53462;39.616;8.824;2023-04-16T00:02:20;11.10;99.90
66608;DHT22;53462;39.616;8.824;2023-04-16T00:04:46;11.10;99.90
66608;DHT22;53462;39.616;8.824;2023-04-16T00:07:12;10.90;99.90
66608;DHT22;53462;39.616;8.824;2023-04-16T00:09:38;10.90;99.90
66608;DHT22;53462;39.616;8.824;2023-04-16T00:12:05;10.80;99.90
66608;DHT22;53462;39.616;8.824;2023-04-16T00:14:31;10.80;99.90
66608;DHT22;53462;39.616;8.824;2023-04-16T00:16:57;10.80;99.90
66608;DHT22;53462;39.616;8.824;2023-04-16T00:19:23;10.80;99.90
66608;DHT22;53462;39.616;8.824;2023-04-16T00:21:50;10.90;99.90
66608;DHT22;53462;39.616;8.824;2023-04-16T00:24:16;11.00;99.90
66608;DHT22;53462;39.616;8.824;2023-04-16T00:26:42;11.10;99.90
66608;DHT22;53462;39.616;8.824;2023-04-16T00:29:10;11.10;99.90
66608;DHT22;53462;39.616;8.824;2023-04-16T00:31:37;11.20;99.90
66608;DHT22;53462;39.616;8.824;2023-04-16T00:34:03;11.20;99.90
66608;DHT22;53462;39.616;8.824;2023-04-16T00:36:29;11.20;99.90
66608;DHT22;53462;39.616;8.824;2023-04-16T00:38:56;11.30;99.90
66608;DHT22;53462;39.616;8.824;2023-04-16T00:41:22;11.20;99.90
66608;DHT22;53462;39.616;8.824;2023-04-16T00:43:49;11.20;99.90
66608;DHT22;53462;39.616;8.824;2023-04-16T00:46:16;11.20;99.90
66608;DHT22;53462;39.616;8.824;2023-04-16T00:48:44;11.20;99.90
66608;DHT22;53462;39.616;8.824;2023-04-16T00:51:10;11.30;99.90
66608;DHT22;53462;39.616;8.824;2023-04-16T00:53:36;11.30;99.90
66608;DHT22;53462;39.616;8.824;2023-04-16T00:56:04;11.30;99.90
66608;DHT22;53462;39.616;8.824;2023-04-16T00:58:33;11.20;99.90
66608;DHT22;53462;39.616;8.824;2023-04-16T01:01:00;11.30;99.90
66608;DHT22;53462;39.616;8.824;2023-04-16T01:03:38;11.30;99.90
66608;DHT22;53462;39.616;8.824;2023-04-16T01:06:05;11.30;99.90
66608;DHT22;53462;39.616;8.824;2023-04-16T01:08:32;11.30;99.90
66608;DHT22;53462;39.616;8.824;2023-04-16T01:10:58;11.30;99.90
66608;DHT22;53462;39.616;8.824;2023-04-16T01:13:24;11.30;99.90
66608;DHT22;53462;39.616;8.824;2023-04-16T01:15:50;11.30;99.90
66608;DHT22;53462;39.616;8.824;2023-04-16T01:18:19;11.30;99.90
66608;DHT22;53462;39.616;8.824;2023-04-16T01:20:46;11.30;99.90
66608;DHT22;53462;39.616;8.824;2023-04-16T01:23:12;11.20;99.90
66608;DHT22;53462;39.616;8.824;2023-04-16T01:25:38;11.20;99.90
66608;DHT22;53462;39.616;8.824;2023-04-16T01:28:05;11.20;99.90
66608;DHT22;53462;39.616;8.824;2023-04-16T01:30:31;11.20;99.90
66608;DHT22;53462;39.616;8.824;2023-04-16T01:33:27;11.20;99.90
66608;DHT22;53462;39.616;8.824;2023-04-16T01:35:53;11.20;99.90
66608;DHT22;53462;39.616;8.824;2023-04-16T01:38:18;11.20;99.90
66608;DHT22;53462;39.616;8.824;2023-04-16T01:40:45;11.20;99.90
66608;DHT22;53462;39.616;8.824;2023-04-16T01:43:11;11.10;99.90
66608;DHT22;53462;39.616;8.824;2023-04-16T01:45:37;11.10;99.90
66608;DHT22;53462;39.616;8.824;2023-04-16T01:48:03;11.00;99.90
66608;DHT22;53462;39.616;8.824;2023-04-16T01:50:29;11.00;99.90
66608;DHT22;53462;39.616;8.824;2023-04-16T01:52:56;11.00;99.90
66608;DHT22;53462;39.616;8.824;2023-04-16T01:55:22;11.00;99.90
66608;DHT22;53462;39.616;8.824;2023-04-16T01:57:48;11.00;99.90
66608;DHT22;53462;39.616;8.824;2023-04-16T02:00:14;11.00;99.90
66608;DHT22;53462;39.616;8.824;2023-04-16T02:02:46;11.00;99.90
66608;DHT22;53462;39.616;8.824;2023-04-16T02:05:21;11.00;99.90
66608;DHT22;53462;39.616;8.824;2023-04-16T02:07:47;10.90;99.90
66608;DHT22;53462;39.616;8.824;2023-04-16T02:10:13;10.90;99.90
66608;DHT22;53462;39.616;8.824;2023-04-16T02:12:39;10.80;99.90
66608;DHT22;53462;39.616;8.824;2023-04-16T02:15:05;10.80;99.90
66608;DHT22;53462;39.616;8.824;2023-04-16T02:17:32;10.80;99.90
66608;DHT22;53462;39.616;8.824;2023-04-16T02:20:08;10.70;99.90
66608;DHT22;53462;39.616;8.824;2023-04-16T02:22:38;10.80;99.90
66608;DHT22;53462;39.616;8.824;2023-04-16T02:25:05;10.80;99.90
66608;DHT22;53462;39.616;8.824;2023-04-16T02:27:31;10.80;99.90
66608;DHT22;53462;39.616;8.824;2023-04-16T02:30:09;10.80;99.90
66608;DHT22;53462;39.616;8.824;2023-04-16T02:32:36;10.80;99.90
66608;DHT22;53462;39.616;8.824;2023-04-16T02:35:02;10.70;99.90
66608;DHT22;53462;39.616;8.824;2023-04-16T02:37:28;10.70;99.90
66608;DHT22;53462;39.616;8.824;2023-04-16T02:39:54;10.60;99.90
66608;DHT22;53462;39.616;8.824;2023-04-16T02:42:20;10.60;99.90
66608;DHT22;53462;39.616;8.824;2023-04-16T02:44:46;10.60;99.90
66608;DHT22;53462;39.616;8.824;2023-04-16T02:47:12;10.60;99.90
66608;DHT22;53462;39.616;8.824;2023-04-16T02:49:38;10.60;99.90
66608;DHT22;53462;39.616;8.824;2023-04-16T02:52:04;10.50;99.90
66608;DHT22;53462;39.616;8.824;2023-04-16T02:54:30;10.50;99.90
66608;DHT22;53462;39.616;8.824;2023-04-16T02:56:56;10.50;99.90
66608;DHT22;53462;39.616;8.824;2023-04-16T02:59:22;10.60;99.90
66608;DHT22;53462;39.616;8.824;2023-04-16T03:01:48;10.50;99.90
66608;DHT22;53462;39.616;8.824;2023-04-16T03:04:13;10.50;99.90
66608;DHT22;53462;39.616;8.824;2023-04-16T03:06:39;10.50;99.90
66608;DHT22;53462;39.616;8.824;2023-04-16T03:09:06;10.50;99.90
66608;DHT22;53462;39.616;8.824;2023-04-16T03:11:32;10.50;99.90
66608;DHT22;53462;39.616;8.824;2023-04-16T03:13:58;10.40;99.90
66608;DHT22;53462;39.616;8.824;2023-04-16T03:16:24;10.40;99.90
66608;DHT22;53462;39.616;8.824;2023-04-16T03:18:50;10.40;99.90
66608;DHT22;53462;39.616;8.824;2023-04-16T03:21:16;10.30;99.90
66608;DHT22;53462;39.616;8.824;2023-04-16T03:23:42;10.40;99.90
66608;DHT22;53462;39.616;8.824;2023-04-16T03:26:08;10.30;99.90
66608;DHT22;53462;39.616;8.824;2023-04-16T03:28:34;10.30;99.90
66608;DHT22;53462;39.616;8.824;2023-04-16T03:31:00;10.20;99.90
66608;DHT22;53462;39.616;8.824;2023-04-16T03:33:26;10.30;99.90
66608;DHT22;53462;39.616;8.824;2023-04-16T03:35:56;10.30;99.90
66608;DHT22;53462;39.616;8.824;2023-04-16T03:38:24;10.30;99.90
66608;DHT22;53462;39.616;8.824;2023-04-16T03:40:55;10.30;99.90
66608;DHT22;53462;39.616;8.824;2023-04-16T03:43:21;10.20;99.90
66608;DHT22;53462;39.616;8.824;2023-04-16T03:45:47;10.30;99.90
66608;DHT22;53462;39.616;8.824;2023-04-16T03:48:13;10.30;99.90
66608;DHT22;53462;39.616;8.824;2023-04-16T03:50:39;10.30;99.90
66608;DHT22;53462;39.616;8.824;2023-04-16T03:53:07;10.20;99.90
66608;DHT22;53462;39.616;8.824;2023-04-16T03:55:34;10.30;99.90
66608;DHT22;53462;39.616;8.824;2023-04-16T03:58:01;10.10;99.90
66608;DHT22;53462;39.616;8.824;2023-04-16T04:00:28;10.10;99.90
66608;DHT22;53462;39.616;8.824;2023-04-16T04:03:10;10.00;99.90
66608;DHT22;53462;39.616;8.824;2023-04-16T04:05:41;10.00;99.90
66608;DHT22;53462;39.616;8.824;2023-04-16T04:08:10;9.90;99.90
66608;DHT22;53462;39.616;8.824;2023-04-16T04:10:36;9.90;99.90
66608;DHT22;53462;39.616;8.824;2023-04-16T04:13:05;9.90;99.90
66608;DHT22;53462;39.616;8.824;2023-04-16T04:15:32;9.70;99.90
66608;DHT22;53462;39.616;8.824;2023-04-16T04:17:58;9.80;99.90
66608;DHT22;53462;39.616;8.824;2023-04-16T04:20:24;9.70;99.90
66608;DHT22;53462;39.616;8.824;2023-04-16T04:22:51;9.80;99.90
66608;DHT22;53462;39.616;8.824;2023-04-16T04:25:20;9.70;99.90
66608;DHT22;53462;39.616;8.824;2023-04-16T04:27:46;9.60;99.90
66608;DHT22;53462;39.616;8.824;2023-04-16T04:30:12;9.50;99.90
66608;DHT22;53462;39.616;8.824;2023-04-16T04:32:39;9.60;99.90
66608;DHT22;53462;39.616;8.824;2023-04-16T04:35:05;9.60;99.90
66608;DHT22;53462;39.616;8.824;2023-04-16T04:37:31;9.70;99.90
66608;DHT22;53462;39.616;8.824;2023-04-16T04:39:58;9.70;99.90
66608;DHT22;53462;39.616;8.824;2023-04-16T04:42:24;9.70;99.90
66608;DHT22;53462;39.616;8.824;2023-04-16T04:44:53;9.70;99.90
66608;DHT22;53462;39.616;8.824;2023-04-16T04:47:19;9.80;99.90
66608;DHT22;53462;39.616;8.824;2023-04-16T04:49:45;9.80;99.90
66608;DHT22;53462;39.616;8.824;2023-04-16T04:52:11;9.90;99.90
66608;DHT22;53462;39.616;8.824;2023-04-16T04:54:37;9.80;99.90
66608;DHT22;53462;39.616;8.824;2023-04-16T04:57:07;9.90;99.90
66608;DHT22;53462;39.616;8.824;2023-04-16T04:59:33;9.90;99.90
66608;DHT22;53462;39.616;8.824;2023-04-16T05:01:59;9.80;99.90
66608;DHT22;53462;39.616;8.824;2023-04-16T05:04:26;9.90;99.90
66608;DHT22;53462;39.616;8.824;2023-04-16T05:06:52;10.00;99.90
66608;DHT22;53462;39.616;8.824;2023-04-16T05:09:18;9.90;99.90
66608;DHT22;53462;39.616;8.824;2023-04-16T05:11:44;10.00;99.90
66608;DHT22;53462;39.616;8.824;2023-04-16T05:14:10;10.10;99.90
66608;DHT22;53462;39.616;8.824;2023-04-16T05:16:36;10.20;99.90
66608;DHT22;53462;39.616;8.824;2023-04-16T05:19:03;10.10;99.90
66608;DHT22;53462;39.616;8.824;2023-04-16T05:21:29;10.10;99.90
66608;DHT22;53462;39.616;8.824;2023-04-16T05:23:55;10.10;99.90
66608;DHT22;53462;39.616;8.824;2023-04-16T05:26:21;10.20;99.90
66608;DHT22;53462;39.616;8.824;2023-04-16T05:28:47;10.20;99.90
66608;DHT22;53462;39.616;8.824;2023-04-16T05:31:13;10.30;99.90
66608;DHT22;53462;39.616;8.824;2023-04-16T05:33:39;10.40;99.90
66608;DHT22;53462;39.616;8.824;2023-04-16T05:36:05;10.50;99.90
66608;DHT22;53462;39.616;8.824;2023-04-16T05:38:31;10.50;99.90
66608;DHT22;53462;39.616;8.824;2023-04-16T05:40:57;10.60;99.90
66608;DHT22;53462;39.616;8.824;2023-04-16T05:43:23;10.80;99.90
66608;DHT22;53462;39.616;8.824;2023-04-16T05:45:49;10.90;99.90
66608;DHT22;53462;39.616;8.824;2023-04-16T05:48:15;11.10;99.90
66608;DHT22;53462;39.616;8.824;2023-04-16T05:50:41;11.20;99.90
66608;DHT22;53462;39.616;8.824;2023-04-16T05:53:08;11.30;99.90
66608;DHT22;53462;39.616;8.824;2023-04-16T05:55:34;11.40;99.90
66608;DHT22;53462;39.616;8.824;2023-04-16T05:58:03;11.50;99.90
66608;DHT22;53462;39.616;8.824;2023-04-16T06:00:32;11.60;99.90
66608;DHT22;53462;39.616;8.824;2023-04-16T06:02:58;11.70;99.90
66608;DHT22;53462;39.616;8.824;2023-04-16T06:05:25;11.80;99.90
66608;DHT22;53462;39.616;8.824;2023-04-16T06:07:51;12.00;99.90
66608;DHT22;53462;39.616;8.824;2023-04-16T06:10:17;12.20;99.90
66608;DHT22;53462;39.616;8.824;2023-04-16T06:12:43;12.50;99.90
66608;DHT22;53462;39.616;8.824;2023-04-16T06:15:09;12.90;99.90
66608;DHT22;53462;39.616;8.824;2023-04-16T06:17:35;13.20;99.90
66608;DHT22;53462;39.616;8.824;2023-04-16T06:20:01;14.20;99.90
66608;DHT22;53462;39.616;8.824;2023-04-16T06:22:27;14.30;99.80
66608;DHT22;53462;39.616;8.824;2023-04-16T06:24:53;13.90;99.90
66608;DHT22;53462;39.616;8.824;2023-04-16T06:27:19;13.40;99.90
66608;DHT22;53462;39.616;8.824;2023-04-16T06:29:45;13.40;99.90
66608;DHT22;53462;39.616;8.824;2023-04-16T06:32:11;13.00;99.90
66608;DHT22;53462;39.616;8.824;2023-04-16T06:34:37;13.10;99.90
66608;DHT22;53462;39.616;8.824;2023-04-16T06:37:04;12.90;99.90
66608;DHT22;53462;39.616;8.824;2023-04-16T06:39:30;13.60;99.90
66608;DHT22;53462;39.616;8.824;2023-04-16T06:41:56;13.40;99.90
66608;DHT22;53462;39.616;8.824;2023-04-16T06:44:22;14.90;99.90
66608;DHT22;53462;39.616;8.824;2023-04-16T06:46:49;16.90;96.00
66608;DHT22;53462;39.616;8.824;2023-04-16T06:49:15;17.90;91.00
66608;DHT22;53462;39.616;8.824;2023-04-16T06:51:41;18.10;84.60
66608;DHT22;53462;39.616;8.824;2023-04-16T06:54:07;18.40;84.30
66608;DHT22;53462;39.616;8.824;2023-04-16T06:56:33;18.40;81.50
66608;DHT22;53462;39.616;8.824;2023-04-16T06:59:00;18.70;81.10
66608;DHT22;53462;39.616;8.824;2023-04-16T07:01:26;18.70;80.40
66608;DHT22;53462;39.616;8.824;2023-04-16T07:03:53;18.70;80.40
66608;DHT22;53462;39.616;8.824;2023-04-16T07:06:19;17.60;84.10
66608;DHT22;53462;39.616;8.824;2023-04-16T07:08:45;18.10;82.50
66608;DHT22;53462;39.616;8.824;2023-04-16T07:11:11;18.50;80.60
66608;DHT22;53462;39.616;8.824;2023-04-16T07:13:37;18.40;79.20
66608;DHT22;53462;39.616;8.824;2023-04-16T07:16:03;18.50;81.20
66608;DHT22;53462;39.616;8.824;2023-04-16T07:18:28;18.90;77.60
66608;DHT22;53462;39.616;8.824;2023-04-16T07:20:55;18.90;79.70
66608;DHT22;53462;39.616;8.824;2023-04-16T07:23:21;19.60;77.30
66608;DHT22;53462;39.616;8.824;2023-04-16T07:25:46;20.10;75.40
66608;DHT22;53462;39.616;8.824;2023-04-16T07:28:12;20.00;75.10
66608;DHT22;53462;39.616;8.824;2023-04-16T07:30:41;20.00;75.50
66608;DHT22;53462;39.616;8.824;2023-04-16T07:33:07;20.00;74.50
66608;DHT22;53462;39.616;8.824;2023-04-16T07:35:33;20.00;74.80
66608;DHT22;53462;39.616;8.824;2023-04-16T07:37:59;19.90;74.40
66608;DHT22;53462;39.616;8.824;2023-04-16T07:40:25;20.20;74.20
66608;DHT22;53462;39.616;8.824;2023-04-16T07:42:51;20.40;73.30
66608;DHT22;53462;39.616;8.824;2023-04-16T07:45:17;19.70;74.30
66608;DHT22;53462;39.616;8.824;2023-04-16T07:47:44;19.40;77.80
66608;DHT22;53462;39.616;8.824;2023-04-16T07:50:11;18.00;79.60
66608;DHT22;53462;39.616;8.824;2023-04-16T07:52:36;17.70;82.20
66608;DHT22;53462;39.616;8.824;2023-04-16T07:55:09;17.80;83.00
66608;DHT22;53462;39.616;8.824;2023-04-16T07:57:36;18.10;82.30
66608;DHT22;53462;39.616;8.824;2023-04-16T08:00:02;18.20;81.30
66608;DHT22;53462;39.616;8.824;2023-04-16T08:02:38;18.80;79.70
66608;DHT22;53462;39.616;8.824;2023-04-16T08:05:05;19.30;78.40
66608;DHT22;53462;39.616;8.824;2023-04-16T08:07:30;19.30;75.70
66608;DHT22;53462;39.616;8.824;2023-04-16T08:09:56;19.30;73.40
66608;DHT22;53462;39.616;8.824;2023-04-16T08:12:22;18.90;76.30
66608;DHT22;53462;39.616;8.824;2023-04-16T08:14:48;18.20;76.90
66608;DHT22;53462;39.616;8.824;2023-04-16T08:17:15;17.50;79.50
66608;DHT22;53462;39.616;8.824;2023-04-16T08:19:41;17.20;81.70
66608;DHT22;53462;39.616;8.824;2023-04-16T08:22:08;17.20;82.30
66608;DHT22;53462;39.616;8.824;2023-04-16T08:24:34;16.80;84.00
66608;DHT22;53462;39.616;8.824;2023-04-16T08:27:00;17.00;83.90
66608;DHT22;53462;39.616;8.824;2023-04-16T08:29:26;17.30;81.20
66608;DHT22;53462;39.616;8.824;2023-04-16T08:31:52;17.90;80.00
66608;DHT22;53462;39.616;8.824;2023-04-16T08:34:18;18.00;79.10
66608;DHT22;53462;39.616;8.824;2023-04-16T08:36:45;17.90;79.60
66608;DHT22;53462;39.616;8.824;2023-04-16T08:39:11;18.40;77.20
66608;DHT22;53462;39.616;8.824;2023-04-16T08:41:39;18.20;76.80
66608;DHT22;53462;39.616;8.824;2023-04-16T08:44:36;19.00;74.80
66608;DHT22;53462;39.616;8.824;2023-04-16T08:47:02;18.40;72.90
66608;DHT22;53462;39.616;8.824;2023-04-16T08:49:35;17.40;76.20
66608;DHT22;53462;39.616;8.824;2023-04-16T08:52:05;17.30;77.70
66608;DHT22;53462;39.616;8.824;2023-04-16T08:54:51;18.40;75.20
66608;DHT22;53462;39.616;8.824;2023-04-16T08:57:23;19.50;71.00
66608;DHT22;53462;39.616;8.824;2023-04-16T08:59:53;20.10;66.60
66608;DHT22;53462;39.616;8.824;2023-04-16T09:02:20;20.30;66.10
66608;DHT22;53462;39.616;8.824;2023-04-16T09:04:47;20.70;65.60
66608;DHT22;53462;39.616;8.824;2023-04-16T09:07:14;20.50;65.10
66608;DHT22;53462;39.616;8.824;2023-04-16T09:09:43;21.00;62.70
66608;DHT22;53462;39.616;8.824;2023-04-16T09:12:09;20.30;63.40
66608;DHT22;53462;39.616;8.824;2023-04-16T09:14:35;20.10;63.60
66608;DHT22;53462;39.616;8.824;2023-04-16T09:17:03;19.90;61.70
66608;DHT22;53462;39.616;8.824;2023-04-16T09:19:30;19.90;63.00
66608;DHT22;53462;39.616;8.824;2023-04-16T09:21:56;20.90;61.70
66608;DHT22;53462;39.616;8.824;2023-04-16T09:24:22;20.80;60.40
66608;DHT22;53462;39.616;8.824;2023-04-16T09:26:49;20.00;63.20
66608;DHT22;53462;39.616;8.824;2023-04-16T09:29:36;20.70;63.40
66608;DHT22;53462;39.616;8.824;2023-04-16T09:32:04;20.70;63.10
66608;DHT22;53462;39.616;8.824;2023-04-16T09:34:34;21.40;59.60
66608;DHT22;53462;39.616;8.824;2023-04-16T09:37:18;20.60;59.90
66608;DHT22;53462;39.616;8.824;2023-04-16T09:39:52;19.90;63.00
66608;DHT22;53462;39.616;8.824;2023-04-16T09:42:30;20.90;59.60
66608;DHT22;53462;39.616;8.824;2023-04-16T09:44:57;20.30;57.40
66608;DHT22;53462;39.616;8.824;2023-04-16T09:47:25;20.80;58.60
66608;DHT22;53462;39.616;8.824;2023-04-16T09:49:51;21.30;58.50
66608;DHT22;53462;39.616;8.824;2023-04-16T09:52:19;21.50;55.80
66608;DHT22;53462;39.616;8.824;2023-04-16T09:54:49;21.70;55.50
66608;DHT22;53462;39.616;8.824;2023-04-16T09:57:23;21.80;54.90
66608;DHT22;53462;39.616;8.824;2023-04-16T09:59:53;21.90;53.60
66608;DHT22;53462;39.616;8.824;2023-04-16T10:02:26;21.90;54.20
66608;DHT22;53462;39.616;8.824;2023-04-16T10:04:53;21.20;55.90
66608;DHT22;53462;39.616;8.824;2023-04-16T10:07:19;21.60;56.30
66608;DHT22;53462;39.616;8.824;2023-04-16T10:09:49;22.20;56.40
66608;DHT22;53462;39.616;8.824;2023-04-16T10:12:17;22.30;53.90
66608;DHT22;53462;39.616;8.824;2023-04-16T10:14:43;22.60;53.60
66608;DHT22;53462;39.616;8.824;2023-04-16T10:17:09;22.20;55.00
66608;DHT22;53462;39.616;8.824;2023-04-16T10:19:35;22.60;54.10
66608;DHT22;53462;39.616;8.824;2023-04-16T10:22:02;22.60;53.40
66608;DHT22;53462;39.616;8.824;2023-04-16T10:24:33;22.80;52.40
66608;DHT22;53462;39.616;8.824;2023-04-16T10:27:00;22.40;51.70
66608;DHT22;53462;39.616;8.824;2023-04-16T10:29:28;22.40;54.00
66608;DHT22;53462;39.616;8.824;2023-04-16T10:31:55;23.00;54.00
66608;DHT22;53462;39.616;8.824;2023-04-16T10:34:22;23.10;53.20
66608;DHT22;53462;39.616;8.824;2023-04-16T10:36:50;22.70;55.80
66608;DHT22;53462;39.616;8.824;2023-04-16T10:39:25;22.80;55.30
66608;DHT22;53462;39.616;8.824;2023-04-16T10:42:09;22.80;55.00
66608;DHT22;53462;39.616;8.824;2023-04-16T10:44:35;22.80;55.20
66608;DHT22;53462;39.616;8.824;2023-04-16T10:47:01;22.60;55.50
66608;DHT22;53462;39.616;8.824;2023-04-16T10:49:27;22.40;56.40
66608;DHT22;53462;39.616;8.824;2023-04-16T10:52:07;21.80;57.50
66608;DHT22;53462;39.616;8.824;2023-04-16T10:54:35;21.00;58.60
66608;DHT22;53462;39.616;8.824;2023-04-16T10:57:15;20.60;61.30
66608;DHT22;53462;39.616;8.824;2023-04-16T10:59:43;20.30;60.60
66608;DHT22;53462;39.616;8.824;2023-04-16T11:02:14;19.80;62.20
66608;DHT22;53462;39.616;8.824;2023-04-16T11:04:47;20.70;62.30
66608;DHT22;53462;39.616;8.824;2023-04-16T11:07:19;21.90;61.80
66608;DHT22;53462;39.616;8.824;2023-04-16T11:10:05;22.50;58.00
66608;DHT22;53462;39.616;8.824;2023-04-16T11:15:05;22.00;58.10
66608;DHT22;53462;39.616;8.824;2023-04-16T11:20:02;22.50;56.50
66608;DHT22;53462;39.616;8.824;2023-04-16T11:22:29;23.00;56.00
66608;DHT22;53462;39.616;8.824;2023-04-16T11:24:55;22.80;53.90
66608;DHT22;53462;39.616;8.824;2023-04-16T11:27:22;22.90;53.60
66608;DHT22;53462;39.616;8.824;2023-04-16T11:30:03;23.00;54.80
66608;DHT22;53462;39.616;8.824;2023-04-16T11:32:33;23.60;56.20
66608;DHT22;53462;39.616;8.824;2023-04-16T11:35:00;23.70;55.30
66608;DHT22;53462;39.616;8.824;2023-04-16T11:37:36;23.50;56.00
66608;DHT22;53462;39.616;8.824;2023-04-16T11:40:06;23.50;55.60
66608;DHT22;53462;39.616;8.824;2023-04-16T11:42:33;22.70;57.20
66608;DHT22;53462;39.616;8.824;2023-04-16T11:45:02;23.00;58.30
66608;DHT22;53462;39.616;8.824;2023-04-16T11:47:29;23.00;58.60
66608;DHT22;53462;39.616;8.824;2023-04-16T11:49:56;22.70;59.80
66608;DHT22;53462;39.616;8.824;2023-04-16T11:52:30;21.70;61.50
66608;DHT22;53462;39.616;8.824;2023-04-16T11:54:57;21.00;63.90
66608;DHT22;53462;39.616;8.824;2023-04-16T11:57:28;20.30;67.00
66608;DHT22;53462;39.616;8.824;2023-04-16T11:59:56;19.70;71.00
66608;DHT22;53462;39.616;8.824;2023-04-16T12:05:06;20.20;69.00
66608;DHT22;53462;39.616;8.824;2023-04-16T12:07:45;20.40;66.50
66608;DHT22;53462;39.616;8.824;2023-04-16T12:10:11;19.80;67.10
66608;DHT22;53462;39.616;8.824;2023-04-16T12:12:37;19.60;70.00
66608;DHT22;53462;39.616;8.824;2023-04-16T12:15:03;19.60;71.20
66608;DHT22;53462;39.616;8.824;2023-04-16T12:17:33;19.70;70.20
66608;DHT22;53462;39.616;8.824;2023-04-16T12:20:01;19.60;68.90
66608;DHT22;53462;39.616;8.824;2023-04-16T12:22:35;20.20;66.90
66608;DHT22;53462;39.616;8.824;2023-04-16T12:25:06;21.10;65.90
66608;DHT22;53462;39.616;8.824;2023-04-16T12:30:18;21.40;63.80
66608;DHT22;53462;39.616;8.824;2023-04-16T12:32:45;22.00;62.30
66608;DHT22;53462;39.616;8.824;2023-04-16T12:35:12;22.00;59.50
66608;DHT22;53462;39.616;8.824;2023-04-16T12:37:39;21.80;60.00
66608;DHT22;53462;39.616;8.824;2023-04-16T12:40:06;22.30;59.80
66608;DHT22;53462;39.616;8.824;2023-04-16T12:42:32;22.30;60.50
66608;DHT22;53462;39.616;8.824;2023-04-16T12:45:02;22.20;60.70
66608;DHT22;53462;39.616;8.824;2023-04-16T12:47:29;22.40;60.90
66608;DHT22;53462;39.616;8.824;2023-04-16T12:49:56;22.30;60.20
66608;DHT22;53462;39.616;8.824;2023-04-16T12:52:23;21.60;61.80
66608;DHT22;53462;39.616;8.824;2023-04-16T12:54:50;21.20;62.00
66608;DHT22;53462;39.616;8.824;2023-04-16T12:57:16;20.80;62.60
66608;DHT22;53462;39.616;8.824;2023-04-16T12:59:42;21.60;62.40
66608;DHT22;53462;39.616;8.824;2023-04-16T13:02:07;21.90;61.10
66608;DHT22;53462;39.616;8.824;2023-04-16T13:04:33;21.80;60.90
66608;DHT22;53462;39.616;8.824;2023-04-16T13:06:59;21.20;63.00
66608;DHT22;53462;39.616;8.824;2023-04-16T13:09:25;20.90;64.60
66608;DHT22;53462;39.616;8.824;2023-04-16T13:11:51;20.80;65.00
66608;DHT22;53462;39.616;8.824;2023-04-16T13:14:19;21.30;63.00
66608;DHT22;53462;39.616;8.824;2023-04-16T13:16:45;20.70;65.10
66608;DHT22;53462;39.616;8.824;2023-04-16T13:19:11;20.20;65.10
66608;DHT22;53462;39.616;8.824;2023-04-16T13:21:37;20.20;65.90
66608;DHT22;53462;39.616;8.824;2023-04-16T13:24:03;19.80;66.60
66608;DHT22;53462;39.616;8.824;2023-04-16T13:26:29;19.40;68.40
66608;DHT22;53462;39.616;8.824;2023-04-16T13:28:55;19.40;69.00
66608;DHT22;53462;39.616;8.824;2023-04-16T13:31:21;19.30;67.80
66608;DHT22;53462;39.616;8.824;2023-04-16T13:33:47;19.40;68.60
66608;DHT22;53462;39.616;8.824;2023-04-16T13:36:13;20.20;67.90
66608;DHT22;53462;39.616;8.824;2023-04-16T13:38:39;20.70;65.80
66608;DHT22;53462;39.616;8.824;2023-04-16T13:41:05;20.80;66.00
66608;DHT22;53462;39.616;8.824;2023-04-16T13:43:31;20.70;65.70
66608;DHT22;53462;39.616;8.824;2023-04-16T13:45:57;20.70;65.00
66608;DHT22;53462;39.616;8.824;2023-04-16T13:48:25;20.80;63.10
66608;DHT22;53462;39.616;8.824;2023-04-16T13:50:51;20.90;64.40
66608;DHT22;53462;39.616;8.824;2023-04-16T13:53:17;21.10;64.20
66608;DHT22;53462;39.616;8.824;2023-04-16T13:55:43;21.10;64.20
66608;DHT22;53462;39.616;8.824;2023-04-16T13:58:09;21.30;64.60
66608;DHT22;53462;39.616;8.824;2023-04-16T14:00:36;21.30;63.50
66608;DHT22;53462;39.616;8.824;2023-04-16T14:03:02;21.20;62.20
66608;DHT22;53462;39.616;8.824;2023-04-16T14:05:30;21.40;63.40
66608;DHT22;53462;39.616;8.824;2023-04-16T14:07:56;21.30;61.40
66608;DHT22;53462;39.616;8.824;2023-04-16T14:10:22;21.10;61.50
66608;DHT22;53462;39.616;8.824;2023-04-16T14:12:48;20.80;61.30
66608;DHT22;53462;39.616;8.824;2023-04-16T14:15:14;20.50;62.40
66608;DHT22;53462;39.616;8.824;2023-04-16T14:17:41;20.30;63.60
66608;DHT22;53462;39.616;8.824;2023-04-16T14:20:09;20.40;65.30
66608;DHT22;53462;39.616;8.824;2023-04-16T14:22:35;20.40;62.10
66608;DHT22;53462;39.616;8.824;2023-04-16T14:25:01;20.60;63.00
66608;DHT22;53462;39.616;8.824;2023-04-16T14:27:29;20.50;61.40
66608;DHT22;53462;39.616;8.824;2023-04-16T14:29:55;20.50;61.60
66608;DHT22;53462;39.616;8.824;2023-04-16T14:32:21;20.40;63.20
66608;DHT22;53462;39.616;8.824;2023-04-16T14:34:46;20.30;63.60
66608;DHT22;53462;39.616;8.824;2023-04-16T14:37:14;20.40;65.40
66608;DHT22;53462;39.616;8.824;2023-04-16T14:39:41;20.40;65.00
66608;DHT22;53462;39.616;8.824;2023-04-16T14:42:07;20.00;65.40
66608;DHT22;53462;39.616;8.824;2023-04-16T14:44:33;19.90;66.60
66608;DHT22;53462;39.616;8.824;2023-04-16T14:46:59;19.90;67.50
66608;DHT22;53462;39.616;8.824;2023-04-16T14:49:25;20.00;66.40
66608;DHT22;53462;39.616;8.824;2023-04-16T14:51:51;19.60;66.20
66608;DHT22;53462;39.616;8.824;2023-04-16T14:54:18;19.50;67.30
66608;DHT22;53462;39.616;8.824;2023-04-16T14:56:44;19.60;67.70
66608;DHT22;53462;39.616;8.824;2023-04-16T14:59:11;19.40;67.80
66608;DHT22;53462;39.616;8.824;2023-04-16T15:01:37;19.10;68.80
66608;DHT22;53462;39.616;8.824;2023-04-16T15:04:06;19.40;69.20
66608;DHT22;53462;39.616;8.824;2023-04-16T15:06:32;19.60;70.40
66608;DHT22;53462;39.616;8.824;2023-04-16T15:08:59;19.70;68.00
66608;DHT22;53462;39.616;8.824;2023-04-16T15:11:25;19.60;68.00
66608;DHT22;53462;39.616;8.824;2023-04-16T15:13:51;19.10;68.90
66608;DHT22;53462;39.616;8.824;2023-04-16T15:16:17;19.10;69.80
66608;DHT22;53462;39.616;8.824;2023-04-16T15:18:43;19.10;70.40
66608;DHT22;53462;39.616;8.824;2023-04-16T15:21:09;19.10;70.10
66608;DHT22;53462;39.616;8.824;2023-04-16T15:23:35;19.10;70.00
66608;DHT22;53462;39.616;8.824;2023-04-16T15:26:01;19.00;72.10
66608;DHT22;53462;39.616;8.824;2023-04-16T15:28:27;18.70;70.50
66608;DHT22;53462;39.616;8.824;2023-04-16T15:30:53;18.70;71.30
66608;DHT22;53462;39.616;8.824;2023-04-16T15:33:20;18.60;74.10
66608;DHT22;53462;39.616;8.824;2023-04-16T15:35:46;18.70;73.60
66608;DHT22;53462;39.616;8.824;2023-04-16T15:38:12;18.80;70.20
66608;DHT22;53462;39.616;8.824;2023-04-16T15:40:38;18.50;71.30
66608;DHT22;53462;39.616;8.824;2023-04-16T15:43:05;18.50;71.40
66608;DHT22;53462;39.616;8.824;2023-04-16T15:45:31;18.40;71.20